Time;durP1;ratioP1;P1;durP2;ratioP2;P2;SDS_P1;SDS_P2;PMS_P1;PMS_P2;Temp;Humidity;BMP_temperature;BMP_pressure;BME280_temperature;BME280_humidity;BME280_pressure;Samples;Min_cycle;Max_cycle;Signal;HPM_P1;HPM_P2
2023/03/19 00:02:01;;;;;;;1.50;0.90;;;12.90;99.90;;;;;;5002137;28;20788;-43
2023/03/19 00:04:27;;;;;;;1.90;1.05;;;12.90;99.90;;;;;;5001842;28;20022;-43
2023/03/19 00:06:55;;;;;;;2.35;1.08;;;12.80;99.90;;;;;;5002482;28;20693;-44
2023/03/19 00:09:21;;;;;;;0.82;0.80;;;12.80;99.90;;;;;;5001338;28;20137;-43
2023/03/19 00:11:47;;;;;;;1.02;0.73;;;12.80;99.90;;;;;;5001076;28;20032;-42
2023/03/19 00:14:22;;;;;;;2.10;0.90;;;12.70;99.90;;;;;;4998202;28;20569;-43
2023/03/19 00:16:48;;;;;;;2.45;0.90;;;12.70;99.90;;;;;;5002048;28;20504;-44
2023/03/19 00:19:14;;;;;;;1.02;0.80;;;12.60;99.90;;;;;;5000672;28;20018;-44
2023/03/19 00:21:43;;;;;;;1.30;0.90;;;12.60;99.90;;;;;;5002151;28;20080;-44
2023/03/19 00:24:09;;;;;;;0.80;0.80;;;12.70;99.90;;;;;;5001740;28;20046;-44
2023/03/19 00:26:36;;;;;;;0.98;0.82;;;12.70;99.90;;;;;;5001693;28;20420;-43
2023/03/19 00:29:02;;;;;;;0.77;0.73;;;12.60;99.90;;;;;;5001615;28;20522;-43
2023/03/19 00:31:28;;;;;;;0.82;0.82;;;12.60;99.90;;;;;;5001192;28;20729;-43
2023/03/19 00:33:57;;;;;;;1.13;0.80;;;12.70;99.90;;;;;;5001198;28;20108;-43
2023/03/19 00:36:24;;;;;;;1.52;0.70;;;12.70;99.90;;;;;;5000674;28;20041;-43
2023/03/19 00:38:50;;;;;;;0.65;0.60;;;12.80;99.90;;;;;;5001351;28;20367;-44
2023/03/19 00:41:17;;;;;;;0.88;0.70;;;12.80;99.90;;;;;;5001062;28;20483;-42
2023/03/19 00:43:42;;;;;;;0.93;0.80;;;12.80;99.90;;;;;;5001611;28;20128;-43
2023/03/19 00:46:08;;;;;;;1.58;1.00;;;12.80;99.90;;;;;;4999727;28;20051;-43
2023/03/19 00:48:34;;;;;;;0.98;0.90;;;12.80;99.90;;;;;;4999207;28;20461;-43
2023/03/19 00:51:10;;;;;;;0.80;0.75;;;12.80;99.90;;;;;;5001435;28;20025;-43
2023/03/19 00:53:38;;;;;;;0.80;0.70;;;12.80;99.90;;;;;;5000227;28;20476;-44
2023/03/19 00:56:04;;;;;;;1.45;0.80;;;12.80;99.90;;;;;;4990159;28;20022;-43
2023/03/19 00:58:30;;;;;;;1.10;0.98;;;12.80;99.90;;;;;;5000490;28;20131;-44
2023/03/19 01:00:56;;;;;;;1.05;0.93;;;12.70;99.90;;;;;;4999865;28;20030;-44
2023/03/19 01:03:22;;;;;;;2.05;1.00;;;12.70;99.90;;;;;;4999789;28;20632;-44
2023/03/19 01:05:48;;;;;;;2.08;1.00;;;12.60;99.90;;;;;;5000920;28;20022;-44
2023/03/19 01:08:18;;;;;;;1.08;0.98;;;12.70;99.90;;;;;;5000269;28;20115;-43
2023/03/19 01:10:46;;;;;;;0.80;0.77;;;12.60;99.90;;;;;;5000834;28;20029;-43
2023/03/19 01:13:12;;;;;;;0.77;0.77;;;12.60;99.90;;;;;;5000700;28;20026;-44
2023/03/19 01:15:42;;;;;;;0.88;0.85;;;12.60;99.90;;;;;;5000226;28;20021;-43
2023/03/19 01:18:09;;;;;;;1.00;0.95;;;12.60;99.90;;;;;;4980701;28;20097;-42
2023/03/19 01:20:37;;;;;;;1.10;1.00;;;12.50;99.90;;;;;;4995136;28;20021;-43
2023/03/19 01:23:03;;;;;;;2.15;1.00;;;12.50;99.90;;;;;;4999915;28;20046;-43
2023/03/19 01:25:29;;;;;;;1.10;1.00;;;12.50;99.90;;;;;;5000295;28;20032;-43
2023/03/19 01:27:55;;;;;;;1.50;1.00;;;12.40;99.90;;;;;;5000166;28;20065;-43
2023/03/19 01:30:20;;;;;;;1.48;1.00;;;12.40;99.90;;;;;;5000402;28;20041;-43
2023/03/19 01:32:46;;;;;;;1.23;0.82;;;12.30;99.90;;;;;;5000907;28;20025;-44
2023/03/19 01:35:12;;;;;;;1.75;1.27;;;12.30;99.90;;;;;;4999201;28;20041;-44
2023/03/19 01:37:37;;;;;;;1.23;1.05;;;12.30;99.90;;;;;;5000697;28;20037;-44
2023/03/19 01:40:05;;;;;;;1.70;0.93;;;12.20;99.90;;;;;;5000438;28;20133;-44
2023/03/19 01:42:31;;;;;;;1.08;0.80;;;12.20;99.90;;;;;;4999630;28;20096;-43
2023/03/19 01:45:01;;;;;;;1.45;0.98;;;12.20;99.90;;;;;;4999980;28;20469;-43
2023/03/19 01:47:34;;;;;;;0.98;0.98;;;12.10;99.90;;;;;;5000384;28;20173;-43
2023/03/19 01:50:00;;;;;;;1.45;1.23;;;12.10;99.90;;;;;;4999946;28;20022;-43
2023/03/19 01:52:30;;;;;;;2.10;1.30;;;12.00;99.90;;;;;;4999531;28;20097;-42
2023/03/19 01:54:59;;;;;;;1.92;1.33;;;12.00;99.90;;;;;;5000454;28;20033;-43
2023/03/19 01:57:25;;;;;;;1.40;1.20;;;11.90;99.90;;;;;;4998470;28;20045;-43
2023/03/19 01:59:56;;;;;;;1.42;1.23;;;11.90;99.90;;;;;;5000473;28;20037;-43
2023/03/19 02:02:31;;;;;;;1.20;1.10;;;11.90;99.90;;;;;;4999550;28;20528;-43
2023/03/19 02:05:04;;;;;;;2.08;1.13;;;11.80;99.90;;;;;;5000229;28;20025;-43
2023/03/19 02:07:31;;;;;;;1.40;1.30;;;11.80;99.90;;;;;;4999706;28;20105;-43
2023/03/19 02:10:05;;;;;;;1.50;1.15;;;11.80;99.90;;;;;;4999069;28;20052;-43
2023/03/19 02:12:31;;;;;;;2.42;1.25;;;11.80;99.90;;;;;;5000456;28;20109;-43
2023/03/19 02:14:57;;;;;;;1.65;1.10;;;11.70;99.90;;;;;;5000019;28;20029;-43
2023/03/19 02:17:22;;;;;;;1.60;1.40;;;11.80;99.90;;;;;;4999119;28;20052;-41
2023/03/19 02:20:00;;;;;;;1.42;1.30;;;11.90;99.90;;;;;;5000352;28;20018;-43
2023/03/19 02:22:28;;;;;;;1.20;1.05;;;11.90;99.90;;;;;;4999262;28;20133;-42
2023/03/19 02:25:16;;;;;;;1.85;1.27;;;11.90;99.90;;;;;;4999570;28;20040;-43
2023/03/19 02:27:42;;;;;;;1.15;1.05;;;11.90;99.90;;;;;;5000558;28;20030;-43
2023/03/19 02:30:26;;;;;;;2.00;1.40;;;11.90;99.90;;;;;;4999746;28;20033;-43
2023/03/19 02:32:51;;;;;;;1.33;1.15;;;11.90;99.90;;;;;;4998993;28;20033;-44
2023/03/19 02:35:17;;;;;;;1.67;1.20;;;12.00;99.90;;;;;;4999422;28;20022;-44
2023/03/19 02:37:43;;;;;;;1.67;1.50;;;12.00;99.90;;;;;;4999062;28;20045;-44
2023/03/19 02:40:29;;;;;;;1.55;1.40;;;12.00;99.90;;;;;;4998412;28;20018;-44
2023/03/19 02:42:58;;;;;;;1.52;1.38;;;12.00;99.90;;;;;;4999692;28;20120;-44
2023/03/19 02:45:28;;;;;;;1.40;1.30;;;12.00;99.90;;;;;;4998722;28;20025;-42
2023/03/19 02:47:54;;;;;;;1.40;1.30;;;12.00;99.90;;;;;;4999127;28;20593;-43
2023/03/19 02:50:23;;;;;;;2.60;1.50;;;12.10;99.90;;;;;;4999325;28;20028;-43
2023/03/19 02:52:58;;;;;;;1.60;1.42;;;12.10;99.90;;;;;;4999586;28;20037;-42
2023/03/19 02:55:23;;;;;;;1.42;1.33;;;12.10;99.90;;;;;;4999803;28;20470;-43
2023/03/19 02:57:49;;;;;;;2.03;1.30;;;12.00;99.90;;;;;;5000054;28;20136;-43
2023/03/19 03:00:17;;;;;;;1.85;1.67;;;12.00;99.90;;;;;;4999489;28;20041;-43
2023/03/19 03:02:43;;;;;;;1.88;1.50;;;12.00;99.90;;;;;;4999312;28;20349;-43
2023/03/19 03:05:09;;;;;;;3.33;1.80;;;12.00;99.90;;;;;;4998884;28;20746;-43
2023/03/19 03:07:35;;;;;;;1.98;1.65;;;12.00;99.90;;;;;;4998891;28;20032;-43
2023/03/19 03:10:00;;;;;;;1.50;1.40;;;12.00;99.90;;;;;;5000787;28;20029;-43
2023/03/19 03:12:26;;;;;;;1.98;1.30;;;12.00;99.90;;;;;;5003508;28;20104;-44
2023/03/19 03:14:51;;;;;;;2.22;1.50;;;12.00;99.90;;;;;;5002314;28;20030;-43
2023/03/19 03:17:20;;;;;;;1.60;1.50;;;12.00;99.90;;;;;;5002354;28;20654;-44
2023/03/19 03:19:46;;;;;;;1.50;1.40;;;12.00;99.90;;;;;;5002910;28;20041;-43
2023/03/19 03:22:12;;;;;;;2.47;1.75;;;12.00;99.90;;;;;;5001596;28;20034;-43
2023/03/19 03:24:38;;;;;;;1.70;1.48;;;12.00;99.90;;;;;;5002809;28;20099;-43
2023/03/19 03:27:04;;;;;;;2.72;2.05;;;12.00;99.90;;;;;;5002502;28;20672;-44
2023/03/19 03:29:30;;;;;;;1.77;1.58;;;12.00;99.90;;;;;;5001973;28;20145;-43
2023/03/19 03:31:55;;;;;;;1.63;1.52;;;12.00;99.90;;;;;;5002760;28;20492;-44
2023/03/19 03:34:21;;;;;;;2.42;1.60;;;12.00;99.90;;;;;;5001831;28;20030;-44
2023/03/19 03:36:46;;;;;;;2.47;1.67;;;12.10;99.90;;;;;;5002190;28;20026;-44
2023/03/19 03:39:13;;;;;;;1.98;1.67;;;12.00;99.90;;;;;;5001951;28;20034;-44
2023/03/19 03:41:38;;;;;;;1.98;1.63;;;12.10;99.90;;;;;;5002205;28;20121;-44
2023/03/19 03:44:04;;;;;;;2.38;1.70;;;12.00;99.90;;;;;;5002340;28;20025;-43
2023/03/19 03:46:30;;;;;;;1.58;1.40;;;12.10;99.90;;;;;;5002876;28;20089;-44
2023/03/19 03:48:55;;;;;;;2.00;1.77;;;12.00;99.90;;;;;;5001834;28;20026;-44
2023/03/19 03:51:24;;;;;;;2.00;1.80;;;12.00;99.90;;;;;;5001906;28;20025;-43
2023/03/19 03:53:49;;;;;;;2.22;1.80;;;12.00;99.90;;;;;;5002803;28;20044;-42
2023/03/19 03:56:15;;;;;;;2.05;1.70;;;12.00;99.90;;;;;;5001440;28;20022;-43
2023/03/19 03:58:41;;;;;;;2.35;1.98;;;12.00;99.90;;;;;;5001995;28;20050;-43
2023/03/19 04:01:06;;;;;;;2.75;2.08;;;12.00;99.90;;;;;;5002226;28;20030;-44
2023/03/19 04:03:32;;;;;;;3.10;2.17;;;11.90;99.90;;;;;;5002257;28;20565;-43
2023/03/19 04:05:58;;;;;;;2.20;2.00;;;11.90;99.90;;;;;;5002268;28;20029;-43
2023/03/19 04:08:23;;;;;;;3.72;2.45;;;11.90;99.90;;;;;;5002339;28;20030;-43
2023/03/19 04:10:49;;;;;;;2.83;2.10;;;11.80;99.90;;;;;;5001725;28;20153;-44
2023/03/19 04:13:15;;;;;;;2.20;2.00;;;11.80;99.90;;;;;;5001834;28;20064;-43
2023/03/19 04:15:45;;;;;;;2.53;2.33;;;11.70;99.90;;;;;;5002061;28;20144;-43
2023/03/19 04:18:10;;;;;;;2.60;2.40;;;11.70;99.90;;;;;;5002025;28;20062;-43
2023/03/19 04:20:36;;;;;;;2.67;2.17;;;11.70;99.90;;;;;;5001716;28;20018;-43
2023/03/19 04:23:02;;;;;;;3.55;2.30;;;11.70;99.90;;;;;;5000477;28;20561;-43
2023/03/19 04:25:27;;;;;;;2.70;2.42;;;11.70;99.90;;;;;;5000602;28;20092;-42
2023/03/19 04:27:56;;;;;;;2.95;2.67;;;11.70;99.90;;;;;;5001594;28;20077;-42
2023/03/19 04:30:22;;;;;;;4.97;2.53;;;11.80;99.90;;;;;;5000904;28;20018;-42
2023/03/19 04:32:47;;;;;;;3.00;2.50;;;11.80;99.90;;;;;;5000450;28;20030;-42
2023/03/19 04:35:13;;;;;;;10.95;3.63;;;11.70;99.90;;;;;;5000992;28;20026;-42
2023/03/19 04:37:47;;;;;;;3.63;3.17;;;11.70;99.90;;;;;;5000893;28;20041;-44
2023/03/19 04:40:13;;;;;;;3.20;2.90;;;11.70;99.90;;;;;;5000314;28;20848;-44
2023/03/19 04:42:39;;;;;;;4.97;3.03;;;11.70;99.90;;;;;;5001935;28;20073;-43
2023/03/19 04:45:05;;;;;;;4.00;2.95;;;11.70;99.90;;;;;;5000446;28;20108;-43
2023/03/19 04:47:33;;;;;;;3.13;2.70;;;11.70;99.90;;;;;;5001263;28;20429;-43
2023/03/19 04:49:58;;;;;;;3.70;3.28;;;11.80;99.90;;;;;;5001037;28;20057;-42
2023/03/19 04:52:24;;;;;;;3.83;3.40;;;11.80;99.90;;;;;;5000809;28;20498;-43
2023/03/19 04:54:50;;;;;;;3.75;3.28;;;11.80;99.90;;;;;;5001923;28;20029;-43
2023/03/19 04:57:16;;;;;;;3.40;3.10;;;11.80;99.90;;;;;;5000220;28;20337;-44
2023/03/19 04:59:41;;;;;;;3.65;3.30;;;11.80;99.90;;;;;;5001338;28;20273;-43
2023/03/19 05:02:07;;;;;;;4.68;3.90;;;11.80;99.90;;;;;;5000409;28;20091;-44
2023/03/19 05:04:32;;;;;;;4.97;4.10;;;11.80;99.90;;;;;;5001306;28;20022;-44
2023/03/19 05:06:58;;;;;;;4.35;3.85;;;11.80;99.90;;;;;;5000828;28;20229;-43
2023/03/19 05:09:24;;;;;;;4.68;4.07;;;11.80;99.90;;;;;;5001051;28;20026;-43
2023/03/19 05:11:50;;;;;;;4.25;3.78;;;11.80;99.90;;;;;;5001278;28;20029;-43
2023/03/19 05:14:16;;;;;;;4.40;4.00;;;11.70;99.90;;;;;;5000530;28;20097;-44
2023/03/19 05:16:41;;;;;;;5.25;4.43;;;11.70;99.90;;;;;;5001327;28;20813;-44
2023/03/19 05:19:07;;;;;;;5.35;4.78;;;11.70;99.90;;;;;;5000500;28;20354;-44
2023/03/19 05:21:35;;;;;;;5.88;5.28;;;11.70;99.90;;;;;;5000746;28;20076;-44
2023/03/19 05:24:01;;;;;;;6.30;5.60;;;11.70;99.90;;;;;;5000512;28;20072;-43
2023/03/19 05:26:26;;;;;;;7.28;6.00;;;11.70;99.90;;;;;;5001184;28;20101;-43
2023/03/19 05:28:52;;;;;;;6.72;6.03;;;11.70;99.90;;;;;;5000476;28;20072;-44
2023/03/19 05:31:17;;;;;;;6.55;5.82;;;11.70;99.90;;;;;;5000137;28;20763;-44
2023/03/19 05:33:43;;;;;;;7.30;5.88;;;11.70;99.90;;;;;;4999685;28;20479;-42
2023/03/19 05:36:08;;;;;;;6.60;5.75;;;11.70;99.90;;;;;;4999288;28;20048;-43
2023/03/19 05:38:34;;;;;;;6.40;5.80;;;11.80;99.90;;;;;;5000260;28;20489;-43
2023/03/19 05:41:04;;;;;;;6.32;5.72;;;11.80;99.90;;;;;;5000690;28;20130;-43
2023/03/19 05:43:30;;;;;;;6.72;5.88;;;11.70;99.90;;;;;;5001069;28;20030;-43
2023/03/19 05:45:56;;;;;;;7.75;6.95;;;11.70;99.90;;;;;;5000940;28;20026;-43
2023/03/19 05:48:25;;;;;;;8.40;7.45;;;11.70;99.90;;;;;;4999966;28;20032;-45
2023/03/19 05:50:51;;;;;;;7.78;6.97;;;11.70;99.90;;;;;;5000378;28;20048;-43
2023/03/19 05:53:21;;;;;;;11.00;8.00;;;11.70;99.90;;;;;;4999862;28;20754;-44
2023/03/19 05:55:50;;;;;;;8.40;7.50;;;11.70;99.90;;;;;;5000010;28;20032;-43
2023/03/19 05:58:15;;;;;;;8.93;8.00;;;11.70;99.90;;;;;;4999726;28;20053;-43
2023/03/19 06:00:41;;;;;;;10.20;8.43;;;11.70;99.90;;;;;;5000481;28;20033;-43
2023/03/19 06:03:07;;;;;;;9.00;8.10;;;11.60;99.90;;;;;;4999220;28;20038;-43
2023/03/19 06:05:32;;;;;;;11.10;8.23;;;11.60;99.90;;;;;;5000472;28;20660;-43
2023/03/19 06:08:01;;;;;;;11.65;10.45;;;11.60;99.90;;;;;;5000491;28;20029;-44
2023/03/19 06:10:26;;;;;;;12.07;9.80;;;11.50;99.90;;;;;;4999208;28;20044;-42
2023/03/19 06:12:52;;;;;;;9.57;8.07;;;11.50;99.90;;;;;;5000199;28;20557;-44
2023/03/19 06:15:17;;;;;;;10.73;8.60;;;11.50;99.90;;;;;;4999305;28;20037;-43
2023/03/19 06:17:43;;;;;;;10.23;8.48;;;11.60;99.90;;;;;;4999062;28;20037;-44
2023/03/19 06:20:10;;;;;;;11.35;9.15;;;11.60;99.90;;;;;;4998498;28;20553;-44
2023/03/19 06:22:36;;;;;;;12.18;9.52;;;11.60;99.90;;;;;;4999683;28;20040;-44
2023/03/19 06:25:02;;;;;;;10.45;9.07;;;11.60;99.90;;;;;;4999413;28;20736;-43
2023/03/19 06:27:27;;;;;;;12.07;10.65;;;11.70;99.90;;;;;;5000489;28;20036;-44
2023/03/19 06:29:53;;;;;;;12.02;10.23;;;11.70;99.90;;;;;;4999956;28;20123;-44
2023/03/19 06:32:22;;;;;;;11.52;9.90;;;11.70;99.90;;;;;;4998978;28;20022;-44
2023/03/19 06:34:47;;;;;;;11.07;9.85;;;11.70;99.90;;;;;;4999992;28;20025;-44
2023/03/19 06:37:13;;;;;;;12.93;11.07;;;11.70;99.90;;;;;;4999040;28;20038;-43
2023/03/19 06:39:41;;;;;;;15.05;11.80;;;11.70;99.90;;;;;;4999896;28;20033;-43
2023/03/19 06:42:07;;;;;;;12.73;11.40;;;11.70;99.90;;;;;;4997586;28;20605;-43
2023/03/19 06:44:32;;;;;;;11.93;10.30;;;11.70;99.90;;;;;;4999655;28;20034;-45
2023/03/19 06:46:58;;;;;;;13.35;11.02;;;11.80;99.90;;;;;;5003735;28;20969;-43
2023/03/19 06:49:23;;;;;;;12.57;10.15;;;11.80;99.90;;;;;;5004237;28;20061;-43
2023/03/19 06:51:49;;;;;;;12.43;10.68;;;11.80;99.90;;;;;;5002458;28;20030;-43
2023/03/19 06:54:15;;;;;;;12.15;10.85;;;11.80;99.90;;;;;;5002910;28;20492;-43
2023/03/19 06:56:40;;;;;;;13.63;10.40;;;11.80;99.90;;;;;;5003812;28;20741;-43
2023/03/19 06:59:06;;;;;;;10.85;9.60;;;11.90;99.90;;;;;;5002171;28;20054;-44
2023/03/19 07:01:32;;;;;;;13.93;11.55;;;11.90;99.90;;;;;;5003482;28;20203;-44
2023/03/19 07:03:57;;;;;;;12.10;10.02;;;12.00;99.90;;;;;;5003467;28;20040;-44
2023/03/19 07:06:23;;;;;;;13.63;11.05;;;12.00;99.90;;;;;;5002170;28;20116;-43
2023/03/19 07:08:49;;;;;;;13.07;11.20;;;12.10;99.90;;;;;;5003231;28;20026;-43
2023/03/19 07:11:15;;;;;;;11.90;10.48;;;12.00;99.90;;;;;;5003602;28;20111;-43
2023/03/19 07:13:41;;;;;;;12.77;10.73;;;12.10;99.90;;;;;;5002971;28;20025;-43
2023/03/19 07:16:09;;;;;;;11.90;10.68;;;12.10;99.90;;;;;;5002614;28;20029;-43
2023/03/19 07:18:34;;;;;;;12.60;11.02;;;12.10;99.90;;;;;;5002397;28;20046;-43
2023/03/19 07:21:00;;;;;;;12.07;10.75;;;12.10;99.90;;;;;;5001914;28;20022;-44
2023/03/19 07:23:26;;;;;;;12.48;9.65;;;12.10;99.90;;;;;;5003101;28;20029;-43
2023/03/19 07:25:51;;;;;;;10.82;9.30;;;12.10;99.90;;;;;;5002877;28;20304;-43
2023/03/19 07:28:17;;;;;;;10.45;9.07;;;12.10;99.90;;;;;;5002350;28;20041;-43
2023/03/19 07:30:42;;;;;;;9.32;8.02;;;12.20;99.90;;;;;;5003423;28;20026;-44
2023/03/19 07:33:11;;;;;;;7.95;6.80;;;12.20;99.90;;;;;;5002795;28;20034;-44
2023/03/19 07:35:36;;;;;;;9.55;7.22;;;12.30;99.90;;;;;;5002867;28;20022;-42
2023/03/19 07:38:02;;;;;;;8.77;6.97;;;12.30;99.90;;;;;;5002238;28;20965;-43
2023/03/19 07:40:31;;;;;;;8.63;6.35;;;12.30;99.90;;;;;;5002618;28;20145;-43
2023/03/19 07:42:56;;;;;;;6.05;5.25;;;12.40;99.90;;;;;;5003319;28;20338;-44
2023/03/19 07:45:22;;;;;;;10.65;7.45;;;12.40;99.90;;;;;;5002918;28;20500;-44
2023/03/19 07:47:51;;;;;;;10.30;8.10;;;12.40;99.90;;;;;;5002772;28;20628;-44
2023/03/19 07:50:17;;;;;;;9.18;7.55;;;12.40;99.90;;;;;;5000198;28;20030;-44
2023/03/19 07:52:46;;;;;;;10.95;8.98;;;12.50;99.90;;;;;;5001917;28;20029;-43
2023/03/19 07:55:11;;;;;;;15.23;9.15;;;12.50;99.90;;;;;;5000923;28;20022;-44
2023/03/19 07:57:37;;;;;;;11.93;9.48;;;12.50;99.90;;;;;;5000219;28;20042;-45
2023/03/19 08:00:04;;;;;;;11.07;9.75;;;12.40;99.90;;;;;;4990566;28;20030;-44
2023/03/19 08:02:30;;;;;;;13.88;10.38;;;12.50;99.90;;;;;;5000143;28;20037;-44
2023/03/19 08:04:55;;;;;;;10.82;8.88;;;12.50;99.90;;;;;;4988684;28;20027;-45
2023/03/19 08:07:21;;;;;;;9.88;8.70;;;12.50;99.90;;;;;;4981520;28;20216;-44
2023/03/19 08:09:47;;;;;;;10.77;9.10;;;12.50;99.90;;;;;;4993083;28;20029;-44
2023/03/19 08:12:15;;;;;;;9.73;8.70;;;12.50;99.90;;;;;;4981855;28;20061;-43
2023/03/19 08:14:44;;;;;;;9.48;8.10;;;12.50;99.90;;;;;;4993799;28;20053;-43
2023/03/19 08:17:10;;;;;;;8.20;7.40;;;12.60;99.90;;;;;;4980650;28;20149;-45
2023/03/19 08:19:35;;;;;;;9.43;8.10;;;12.70;99.90;;;;;;4992288;28;20018;-44
2023/03/19 08:22:01;;;;;;;10.18;8.90;;;12.80;99.90;;;;;;4983832;28;20777;-44
2023/03/19 08:24:26;;;;;;;9.93;8.68;;;12.80;99.90;;;;;;4988002;28;20033;-44
2023/03/19 08:26:52;;;;;;;8.27;7.47;;;12.80;99.90;;;;;;4986115;28;20083;-45
2023/03/19 08:29:18;;;;;;;11.05;9.75;;;12.80;99.90;;;;;;4985599;28;20533;-44
2023/03/19 08:31:43;;;;;;;11.88;9.95;;;12.80;99.90;;;;;;4988284;28;20030;-45
2023/03/19 08:34:12;;;;;;;8.90;8.02;;;12.80;99.90;;;;;;4983441;28;20025;-43
2023/03/19 08:36:37;;;;;;;10.70;9.60;;;12.90;99.90;;;;;;4991416;28;20058;-44
2023/03/19 08:39:03;;;;;;;12.98;10.30;;;13.00;99.90;;;;;;4981429;28;20197;-44
2023/03/19 08:41:30;;;;;;;12.20;9.60;;;13.10;99.90;;;;;;4991903;28;20030;-44
2023/03/19 08:43:55;;;;;;;13.23;10.63;;;13.20;99.90;;;;;;4981514;28;20781;-43
2023/03/19 08:46:21;;;;;;;11.60;9.57;;;13.20;99.90;;;;;;4991308;28;20026;-43
2023/03/19 08:48:47;;;;;;;13.85;12.13;;;13.30;99.90;;;;;;4981669;28;20053;-43
2023/03/19 08:51:12;;;;;;;15.25;13.25;;;13.30;99.90;;;;;;4991840;28;20029;-44
2023/03/19 08:53:38;;;;;;;15.40;11.73;;;13.30;99.90;;;;;;4981061;28;20038;-43
2023/03/19 08:56:06;;;;;;;14.27;12.77;;;13.30;99.90;;;;;;4992628;28;20037;-43
2023/03/19 08:58:32;;;;;;;15.60;13.38;;;13.40;99.90;;;;;;4993849;28;20100;-44
2023/03/19 09:01:09;;;;;;;15.25;13.10;;;13.40;99.90;;;;;;5001212;28;20068;-44
2023/03/19 09:03:36;;;;;;;14.88;13.32;;;13.40;99.90;;;;;;5002030;28;20037;-43
2023/03/19 09:06:03;;;;;;;15.82;13.32;;;13.40;99.90;;;;;;5000463;28;20037;-44
2023/03/19 09:08:29;;;;;;;15.30;13.35;;;13.40;99.90;;;;;;5000765;28;20030;-44
2023/03/19 09:10:56;;;;;;;14.77;13.13;;;13.40;99.90;;;;;;5001413;28;20368;-44
2023/03/19 09:13:22;;;;;;;14.15;12.73;;;13.40;99.90;;;;;;5001036;28;20108;-44
2023/03/19 09:15:51;;;;;;;11.73;10.63;;;13.30;99.90;;;;;;5001068;28;20044;-44
2023/03/19 09:18:19;;;;;;;14.73;13.07;;;13.30;99.90;;;;;;5000366;28;20065;-45
2023/03/19 09:20:45;;;;;;;16.10;13.13;;;13.20;99.90;;;;;;5000124;28;20484;-43
2023/03/19 09:23:11;;;;;;;12.55;11.25;;;13.20;99.90;;;;;;5000484;28;20210;-44
2023/03/19 09:25:36;;;;;;;14.65;13.02;;;13.10;99.90;;;;;;5000902;28;20169;-44
2023/03/19 09:28:02;;;;;;;14.82;12.45;;;13.20;99.90;;;;;;4999917;28;20033;-44
2023/03/19 09:30:27;;;;;;;14.25;12.48;;;13.30;99.90;;;;;;5000899;28;20022;-44
2023/03/19 09:32:53;;;;;;;14.13;12.55;;;13.40;99.90;;;;;;5000649;28;20572;-45
2023/03/19 09:35:19;;;;;;;13.68;12.27;;;13.40;99.90;;;;;;4999236;28;20028;-43
2023/03/19 09:37:45;;;;;;;14.32;12.82;;;13.40;99.90;;;;;;5000393;28;20470;-43
2023/03/19 09:40:22;;;;;;;13.95;12.45;;;13.40;99.90;;;;;;4999558;28;20022;-44
2023/03/19 09:43:07;;;;;;;13.05;11.75;;;13.30;99.90;;;;;;5000212;28;20076;-44
2023/03/19 09:45:33;;;;;;;15.77;12.52;;;13.20;99.90;;;;;;5001352;28;20041;-44
2023/03/19 09:48:05;;;;;;;14.38;12.88;;;13.20;99.90;;;;;;4998752;28;20120;-44
2023/03/19 09:50:36;;;;;;;14.48;13.02;;;13.10;99.90;;;;;;4999474;28;20570;-44
2023/03/19 09:53:22;;;;;;;15.88;14.18;;;13.10;99.90;;;;;;4999872;28;20084;-44
2023/03/19 09:55:51;;;;;;;16.23;12.27;;;13.10;99.90;;;;;;5000373;28;20046;-44
2023/03/19 09:58:26;;;;;;;16.40;13.60;;;13.10;99.90;;;;;;4999592;28;20053;-44
2023/03/19 10:00:52;;;;;;;16.60;14.90;;;13.10;99.90;;;;;;5000977;28;20060;-44
2023/03/19 10:03:42;;;;;;;15.95;13.48;;;13.10;99.90;;;;;;4998730;28;20025;-44
2023/03/19 10:06:34;;;;;;;15.85;14.15;;;13.10;99.90;;;;;;4999658;28;20045;-44
2023/03/19 10:09:19;;;;;;;14.77;13.00;;;13.20;99.90;;;;;;4998395;28;20038;-44
2023/03/19 10:12:13;;;;;;;16.13;13.93;;;13.30;99.90;;;;;;5001139;28;20061;-44
2023/03/19 10:15:18;;;;;;;15.20;13.70;;;13.40;99.90;;;;;;4999871;28;20026;-44
2023/03/19 10:17:57;;;;;;;14.25;12.85;;;13.50;99.90;;;;;;4999581;28;20081;-43
2023/03/19 10:20:34;;;;;;;13.55;12.25;;;13.60;99.90;;;;;;4999718;28;20062;-44
2023/03/19 10:23:24;;;;;;;16.10;14.40;;;13.70;99.90;;;;;;4998986;28;20132;-43
2023/03/19 10:25:53;;;;;;;15.93;14.32;;;13.70;99.90;;;;;;5000945;28;20022;-44
2023/03/19 10:28:21;;;;;;;16.55;14.82;;;13.70;99.90;;;;;;4999659;28;20025;-43
2023/03/19 10:31:07;;;;;;;15.88;13.43;;;13.80;99.90;;;;;;4999270;28;20026;-44
2023/03/19 10:33:51;;;;;;;15.63;14.13;;;13.90;99.90;;;;;;5000121;28;20712;-44
2023/03/19 10:36:24;;;;;;;16.15;14.50;;;14.00;99.90;;;;;;4999448;28;20033;-44
2023/03/19 10:38:49;;;;;;;12.85;11.55;;;14.10;99.90;;;;;;5000014;28;20113;-44
2023/03/19 10:41:19;;;;;;;16.73;15.02;;;14.10;99.90;;;;;;4999674;28;20033;-44
2023/03/19 10:43:58;;;;;;;15.43;13.95;;;14.10;99.90;;;;;;4999292;28;20053;-44
2023/03/19 10:46:24;;;;;;;17.98;14.82;;;14.00;99.90;;;;;;5000171;28;20037;-44
2023/03/19 10:48:49;;;;;;;18.85;16.73;;;13.90;99.90;;;;;;5000446;28;20018;-43
2023/03/19 10:51:22;;;;;;;17.88;16.02;;;13.80;99.90;;;;;;4999309;28;20026;-44
2023/03/19 10:53:51;;;;;;;23.10;20.38;;;13.70;99.90;;;;;;4999528;28;20034;-43
2023/03/19 10:56:29;;;;;;;26.67;23.88;;;13.60;99.90;;;;;;5000253;28;20041;-44
2023/03/19 10:59:06;;;;;;;22.83;20.48;;;13.60;99.90;;;;;;5000148;28;20141;-44
2023/03/19 11:01:33;;;;;;;21.73;18.85;;;13.50;99.90;;;;;;5000904;28;20371;-44
2023/03/19 11:04:00;;;;;;;22.25;19.02;;;13.50;99.90;;;;;;4999609;28;20021;-43
2023/03/19 11:06:36;;;;;;;19.77;17.67;;;13.50;99.90;;;;;;4998922;28;20354;-44
2023/03/19 11:09:18;;;;;;;18.67;16.83;;;13.50;99.90;;;;;;5000231;28;20030;-44
2023/03/19 11:11:57;;;;;;;25.08;20.75;;;13.50;99.90;;;;;;4989329;28;20524;-44
2023/03/19 11:14:31;;;;;;;24.30;20.08;;;13.50;99.90;;;;;;4999290;28;20143;-43
2023/03/19 11:17:00;;;;;;;22.90;19.40;;;13.60;99.90;;;;;;4999829;28;20061;-44
2023/03/19 11:19:29;;;;;;;21.17;18.98;;;13.60;99.90;;;;;;4998445;28;20072;-44
2023/03/19 11:22:14;;;;;;;18.13;16.10;;;13.60;99.90;;;;;;4999519;28;20026;-44
2023/03/19 11:24:47;;;;;;;21.55;19.33;;;13.70;99.90;;;;;;4999724;28;20125;-44
2023/03/19 11:27:12;;;;;;;19.95;17.80;;;13.70;99.90;;;;;;4988867;28;20068;-44
2023/03/19 11:29:43;;;;;;;22.90;20.05;;;13.70;99.90;;;;;;5000322;28;20537;-44
2023/03/19 11:32:44;;;;;;;21.95;19.50;;;13.70;99.90;;;;;;5002070;28;20025;-43
2023/03/19 11:35:20;;;;;;;21.27;17.13;;;13.80;99.90;;;;;;5002649;28;20022;-43
2023/03/19 11:38:00;;;;;;;23.08;16.70;;;13.90;99.90;;;;;;5003382;28;20037;-45
2023/03/19 11:40:36;;;;;;;20.77;17.38;;;14.10;99.90;;;;;;5002198;28;20048;-44
2023/03/19 11:43:37;;;;;;;17.98;16.00;;;14.20;99.90;;;;;;5002573;28;20041;-45
2023/03/19 11:46:45;;;;;;;20.92;17.27;;;14.40;99.90;;;;;;5002055;28;20030;-45
2023/03/19 11:50:05;;;;;;;19.90;15.57;;;14.60;99.90;;;;;;4903048;29;20091;-44
2023/03/19 11:52:47;;;;;;;20.30;17.63;;;14.90;99.90;;;;;;4941190;29;20834;-45
2023/03/19 11:55:37;;;;;;;25.58;18.55;;;15.00;99.90;;;;;;4940499;29;20566;-43
2023/03/19 11:58:40;;;;;;;19.83;16.38;;;15.10;99.90;;;;;;4990297;28;20141;-45
2023/03/19 12:01:18;;;;;;;17.75;14.32;;;15.10;99.90;;;;;;5001061;28;20026;-45
2023/03/19 12:04:15;;;;;;;24.63;17.23;;;15.20;99.90;;;;;;5003212;28;20081;-43
2023/03/19 12:06:52;;;;;;;23.60;17.13;;;15.10;99.90;;;;;;5002543;28;20596;-44
2023/03/19 12:09:39;;;;;;;27.73;18.23;;;15.00;99.90;;;;;;5000154;28;20034;-43
2023/03/19 12:12:27;;;;;;;26.73;17.63;;;14.80;99.90;;;;;;4999668;28;20037;-44
2023/03/19 12:15:22;;;;;;;25.33;16.48;;;14.60;99.90;;;;;;5000325;28;20077;-44
2023/03/19 12:18:04;;;;;;;23.05;15.48;;;14.50;99.90;;;;;;5002046;28;20115;-44
2023/03/19 12:20:37;;;;;;;23.30;15.52;;;14.40;99.90;;;;;;5002165;28;20441;-44
2023/03/19 12:23:30;;;;;;;22.40;14.73;;;14.40;99.90;;;;;;5001437;28;20030;-45
2023/03/19 12:26:03;;;;;;;19.90;14.13;;;14.50;99.90;;;;;;5001559;28;20041;-44
2023/03/19 12:29:02;;;;;;;25.05;16.50;;;14.50;99.90;;;;;;5002718;28;20033;-44
2023/03/19 12:31:54;;;;;;;22.45;15.30;;;14.60;99.90;;;;;;5003002;28;20037;-44
2023/03/19 12:34:47;;;;;;;24.17;15.65;;;14.50;99.90;;;;;;5000897;28;20038;-44
2023/03/19 12:37:30;;;;;;;19.27;14.82;;;14.50;99.90;;;;;;5000556;28;20624;-44
2023/03/19 12:40:33;;;;;;;19.25;13.68;;;14.50;99.90;;;;;;5003037;28;20504;-43
2023/03/19 12:43:10;;;;;;;20.00;13.60;;;14.50;99.90;;;;;;5000741;28;20119;-45
2023/03/19 12:45:43;;;;;;;17.77;12.88;;;14.40;99.90;;;;;;5002087;28;20088;-44
2023/03/19 12:48:26;;;;;;;22.75;15.32;;;14.30;99.90;;;;;;5000649;28;20030;-45
2023/03/19 12:50:56;;;;;;;19.88;12.52;;;14.20;99.90;;;;;;5001709;28;20022;-45
2023/03/19 12:53:30;;;;;;;19.33;12.98;;;14.10;99.90;;;;;;5000915;28;20869;-44